createdAt,value
2023-01-29T00:01:08.654Z,37.70
2023-01-29T00:04:11.349Z,40.40
2023-01-29T00:07:13.292Z,40.80
2023-01-29T00:10:16.647Z,38.53
2023-01-29T00:13:18.785Z,47.03
2023-01-29T00:16:21.145Z,43.13
2023-01-29T00:19:23.305Z,41.63
2023-01-29T00:22:25.780Z,40.88
2023-01-29T00:25:27.791Z,35.45
2023-01-29T00:28:29.683Z,37.88
2023-01-29T00:31:31.861Z,42.25
2023-01-29T00:34:34.207Z,43.80
2023-01-29T00:37:36.396Z,43.83
2023-01-29T00:40:57.938Z,45.37
2023-01-29T00:44:18.439Z,44.25
2023-01-29T00:47:35.656Z,41.97
2023-01-29T00:50:37.660Z,37.40
2023-01-29T00:53:41.350Z,38.70
2023-01-29T00:56:43.316Z,35.83
2023-01-29T00:59:46.608Z,39.97
2023-01-29T01:03:06.610Z,36.97
2023-01-29T01:06:09.470Z,40.67
2023-01-29T01:09:30.362Z,38.70
2023-01-29T01:12:32.903Z,35.13
2023-01-29T01:15:35.639Z,38.60
2023-01-29T01:18:38.433Z,35.60
2023-01-29T01:21:45.335Z,33.13
2023-01-29T01:24:47.857Z,37.47
2023-01-29T01:27:54.621Z,37.88
2023-01-29T01:30:56.760Z,36.30
2023-01-29T01:33:59.056Z,39.45
2023-01-29T01:37:01.129Z,40.75
2023-01-29T01:40:05.800Z,37.72
2023-01-29T01:43:09.529Z,40.20
2023-01-29T01:46:11.819Z,41.83
2023-01-29T01:49:18.292Z,40.45
2023-01-29T01:52:20.787Z,44.00
2023-01-29T01:55:24.168Z,44.60
2023-01-29T01:58:27.037Z,37.47
2023-01-29T02:01:29.354Z,46.13
2023-01-29T02:04:49.789Z,47.67
2023-01-29T02:08:10.673Z,44.03
2023-01-29T02:11:12.767Z,41.83
2023-01-29T02:14:14.868Z,46.57
2023-01-29T02:17:17.446Z,46.40
2023-01-29T02:20:24.310Z,43.90
2023-01-29T02:23:43.835Z,39.90
2023-01-29T02:26:49.717Z,43.97
2023-01-29T02:29:58.163Z,49.08
2023-01-29T02:33:11.532Z,45.75
2023-01-29T02:36:32.797Z,45.40
2023-01-29T02:39:38.240Z,43.75
2023-01-29T02:42:51.624Z,44.95
2023-01-29T02:45:59.690Z,45.07
2023-01-29T02:49:13.257Z,46.90
2023-01-29T02:52:16.518Z,47.08
2023-01-29T02:55:20.318Z,45.60
2023-01-29T02:58:30.665Z,47.00
2023-01-29T03:01:48.693Z,46.97
2023-01-29T03:04:52.038Z,44.88
2023-01-29T03:07:55.995Z,43.38
2023-01-29T03:11:06.173Z,44.97
2023-01-29T03:14:14.538Z,41.55
2023-01-29T03:17:16.609Z,44.37
2023-01-29T03:20:20.856Z,47.00
2023-01-29T03:23:44.092Z,44.30
2023-01-29T03:27:04.949Z,43.13
2023-01-29T03:30:30.127Z,50.22
2023-01-29T03:33:46.886Z,48.05
2023-01-29T03:36:55.867Z,45.75
2023-01-29T03:39:58.548Z,45.97
2023-01-29T03:43:11.115Z,38.47
2023-01-29T03:46:29.212Z,43.80
2023-01-29T03:49:40.169Z,37.40
2023-01-29T03:52:46.078Z,45.65
2023-01-29T03:56:09.783Z,45.13
2023-01-29T03:59:23.499Z,42.90
2023-01-29T04:03:12.338Z,43.47
2023-01-29T04:06:25.638Z,46.22
2023-01-29T04:09:42.957Z,41.65
2023-01-29T04:12:47.525Z,39.03
2023-01-29T04:15:50.911Z,40.08
2023-01-29T04:18:58.596Z,41.33
2023-01-29T04:22:15.547Z,42.37
2023-01-29T04:25:26.568Z,37.65
2023-01-29T04:28:34.800Z,39.90
2023-01-29T04:31:55.900Z,41.33
2023-01-29T04:35:04.207Z,41.55
2023-01-29T04:38:33.089Z,41.03
2023-01-29T04:41:54.355Z,43.65
2023-01-29T04:45:01.535Z,45.00
2023-01-29T04:48:13.135Z,42.22
2023-01-29T04:51:21.174Z,46.58
2023-01-29T04:54:41.259Z,44.70
2023-01-29T04:57:46.336Z,35.65
2023-01-29T05:00:49.320Z,41.28
2023-01-29T05:03:51.886Z,46.67
2023-01-29T05:06:54.195Z,46.45
2023-01-29T05:09:56.725Z,42.97
2023-01-29T05:13:00.086Z,42.88
2023-01-29T05:16:07.253Z,40.30
2023-01-29T05:19:10.335Z,42.50
2023-01-29T05:22:12.771Z,44.90
2023-01-29T05:25:25.101Z,45.17
2023-01-29T05:28:27.201Z,41.80
2023-01-29T05:31:29.603Z,47.22
2023-01-29T05:34:31.950Z,41.73
2023-01-29T05:37:34.320Z,46.13
2023-01-29T05:40:36.486Z,43.33
2023-01-29T05:43:38.413Z,46.25
2023-01-29T05:46:40.564Z,39.95
2023-01-29T05:49:42.988Z,45.58
2023-01-29T05:52:44.964Z,39.58
2023-01-29T05:55:47.174Z,45.87
2023-01-29T05:58:49.671Z,46.50
2023-01-29T06:01:52.199Z,46.28
2023-01-29T06:04:54.403Z,40.50
2023-01-29T06:07:56.523Z,39.25
2023-01-29T06:10:59.073Z,43.58
2023-01-29T06:14:00.997Z,47.72
2023-01-29T06:17:03.189Z,44.40
2023-01-29T06:20:05.360Z,42.65
2023-01-29T06:23:07.497Z,40.67
2023-01-29T06:26:10.990Z,37.90
2023-01-29T06:29:13.041Z,39.90
2023-01-29T06:32:15.086Z,42.72
2023-01-29T06:35:17.259Z,47.07
2023-01-29T06:38:19.721Z,44.65
2023-01-29T06:41:25.347Z,47.03
2023-01-29T06:44:27.587Z,47.05
2023-01-29T06:47:29.651Z,46.97
2023-01-29T06:50:31.568Z,50.30
2023-01-29T06:53:34.275Z,50.15
2023-01-29T06:56:36.330Z,39.93
2023-01-29T06:59:38.864Z,39.30
2023-01-29T07:02:40.796Z,41.13
2023-01-29T07:05:42.802Z,40.43
2023-01-29T07:08:45.032Z,41.35
2023-01-29T07:11:53.444Z,33.83
2023-01-29T07:14:55.768Z,42.13
2023-01-29T07:17:58.885Z,35.22
2023-01-29T07:21:03.748Z,36.42
2023-01-29T07:24:06.383Z,34.20
2023-01-29T07:27:08.764Z,34.00
2023-01-29T07:30:11.186Z,36.25
2023-01-29T07:33:13.171Z,37.45
2023-01-29T07:36:15.359Z,35.17
2023-01-29T07:39:17.342Z,33.08
2023-01-29T07:42:19.275Z,34.03
2023-01-29T07:45:21.250Z,30.40
2023-01-29T07:48:23.759Z,32.03
2023-01-29T07:51:25.743Z,29.65
2023-01-29T07:54:27.839Z,27.52
2023-01-29T07:57:30.646Z,29.87
2023-01-29T08:00:32.685Z,31.80
2023-01-29T08:03:35.842Z,27.73
2023-01-29T08:06:37.822Z,29.97
2023-01-29T08:09:39.796Z,28.98
2023-01-29T08:12:41.897Z,27.88
2023-01-29T08:15:45.273Z,23.52
2023-01-29T08:18:48.674Z,26.13
2023-01-29T08:21:50.865Z,27.40
2023-01-29T08:24:54.359Z,24.58
2023-01-29T08:28:01.888Z,29.67
2023-01-29T08:31:04.942Z,29.00
2023-01-29T08:34:07.070Z,26.88
2023-01-29T08:37:09.552Z,25.33
2023-01-29T08:40:13.486Z,25.65
2023-01-29T08:43:15.440Z,25.23
2023-01-29T08:46:17.501Z,26.02
2023-01-29T08:49:19.530Z,26.60
2023-01-29T08:52:21.575Z,20.98
2023-01-29T08:55:23.660Z,25.38
2023-01-29T08:58:25.620Z,21.93
2023-01-29T09:01:28.104Z,22.48
2023-01-29T09:04:30.069Z,22.33
2023-01-29T09:07:32.356Z,22.83
2023-01-29T09:10:34.379Z,23.30
2023-01-29T09:13:36.413Z,21.55
2023-01-29T09:16:38.435Z,24.10
2023-01-29T09:19:40.491Z,21.63
2023-01-29T09:22:42.410Z,23.10
2023-01-29T09:25:44.789Z,23.95
2023-01-29T09:28:47.127Z,20.47
2023-01-29T09:31:49.226Z,18.08
2023-01-29T09:34:51.598Z,19.80
2023-01-29T09:37:53.664Z,21.87
2023-01-29T09:40:58.502Z,21.95
2023-01-29T09:44:04.756Z,20.80
2023-01-29T09:47:09.654Z,22.67
2023-01-29T09:50:22.413Z,18.42
2023-01-29T09:53:27.893Z,23.77
2023-01-29T09:56:29.927Z,22.40
2023-01-29T09:59:32.829Z,18.97
2023-01-29T10:02:37.533Z,22.05
2023-01-29T10:05:58.225Z,21.15
2023-01-29T10:09:19.225Z,18.90
2023-01-29T10:12:27.248Z,23.67
2023-01-29T10:15:29.324Z,18.85
2023-01-29T10:18:31.260Z,20.52
2023-01-29T10:21:33.265Z,21.48
2023-01-29T10:24:37.336Z,20.60
2023-01-29T10:27:40.524Z,21.50
2023-01-29T10:30:46.140Z,19.00
2023-01-29T10:34:02.615Z,18.08
2023-01-29T10:37:26.713Z,15.90
2023-01-29T10:40:38.518Z,14.00
2023-01-29T10:43:52.609Z,17.55
2023-01-29T10:47:13.605Z,15.65
2023-01-29T10:50:22.393Z,16.05
2023-01-29T10:53:30.892Z,19.38
2023-01-29T10:56:42.039Z,15.38
2023-01-29T10:59:47.901Z,16.92
2023-01-29T11:02:50.363Z,16.77
2023-01-29T11:06:04.490Z,14.20
2023-01-29T11:09:13.282Z,14.70
2023-01-29T11:12:20.943Z,14.83
2023-01-29T11:15:32.254Z,14.25
2023-01-29T11:18:49.331Z,12.68
2023-01-29T11:21:53.284Z,14.23
2023-01-29T11:25:14.187Z,17.40
2023-01-29T11:28:17.313Z,14.45
2023-01-29T11:31:21.323Z,11.85
2023-01-29T11:34:25.277Z,15.63
2023-01-29T11:37:33.463Z,15.68
2023-01-29T11:40:36.911Z,12.52
2023-01-29T11:43:38.899Z,13.77
2023-01-29T11:46:41.320Z,13.85
2023-01-29T11:49:46.923Z,15.82
2023-01-29T11:52:49.525Z,13.93
2023-01-29T11:55:51.797Z,15.43
2023-01-29T11:58:55.436Z,15.77
2023-01-29T12:02:03.228Z,16.95
2023-01-29T12:05:37.824Z,14.20
2023-01-29T12:08:40.220Z,13.23
2023-01-29T12:11:42.586Z,14.13
2023-01-29T12:14:44.593Z,14.37
2023-01-29T12:17:53.958Z,12.43
2023-01-29T12:21:00.614Z,11.25
2023-01-29T12:24:21.140Z,15.93
2023-01-29T12:27:29.097Z,13.35
2023-01-29T12:30:46.371Z,11.68
2023-01-29T12:33:48.894Z,11.65
2023-01-29T12:36:55.766Z,11.37
2023-01-29T12:39:58.140Z,13.45
2023-01-29T12:43:02.711Z,12.90
2023-01-29T12:46:05.021Z,16.73
2023-01-29T12:49:10.877Z,19.40
2023-01-29T12:52:14.647Z,16.00
2023-01-29T12:55:18.422Z,14.75
2023-01-29T12:58:22.423Z,16.00
2023-01-29T13:01:28.803Z,16.85
2023-01-29T13:04:32.526Z,21.02
2023-01-29T13:07:36.636Z,13.43
2023-01-29T13:10:39.612Z,13.70
2023-01-29T13:13:54.072Z,12.35
2023-01-29T13:17:02.252Z,12.70
2023-01-29T13:20:05.322Z,12.10
2023-01-29T13:23:37.003Z,11.77
2023-01-29T13:26:39.013Z,11.98
2023-01-29T13:29:41.668Z,11.02
2023-01-29T13:32:50.348Z,12.20
2023-01-29T13:35:58.444Z,13.38
2023-01-29T13:39:04.580Z,10.30
2023-01-29T13:42:15.532Z,14.20
2023-01-29T13:45:19.651Z,12.32
2023-01-29T13:48:23.269Z,10.43
2023-01-29T13:51:27.334Z,11.98
2023-01-29T13:54:29.260Z,12.70
2023-01-29T13:57:34.856Z,14.52
2023-01-29T14:00:36.862Z,15.10
2023-01-29T14:04:03.880Z,11.15
2023-01-29T14:07:26.617Z,11.90
2023-01-29T14:10:29.630Z,11.03
2023-01-29T14:13:34.826Z,10.75
2023-01-29T14:16:44.116Z,14.98
2023-01-29T14:19:53.233Z,14.13
2023-01-29T14:22:56.328Z,13.95
2023-01-29T14:25:59.939Z,13.43
2023-01-29T14:29:25.484Z,13.70
2023-01-29T14:32:31.043Z,11.63
2023-01-29T14:35:33.812Z,12.63
2023-01-29T14:38:35.827Z,12.73
2023-01-29T14:41:38.202Z,12.07
2023-01-29T14:44:46.813Z,12.75
2023-01-29T14:47:48.755Z,13.43
2023-01-29T14:50:51.084Z,11.63
2023-01-29T14:53:55.067Z,10.48
2023-01-29T14:57:02.204Z,11.20
2023-01-29T15:00:05.748Z,12.43
2023-01-29T15:03:12.384Z,13.50
2023-01-29T15:06:16.009Z,11.45
2023-01-29T15:09:24.832Z,13.85
2023-01-29T15:12:41.370Z,13.43
2023-01-29T15:15:46.596Z,13.10
2023-01-29T15:18:48.812Z,13.73
2023-01-29T15:22:06.745Z,15.20
2023-01-29T15:25:15.354Z,11.73
2023-01-29T15:28:17.594Z,15.00
2023-01-29T15:31:20.049Z,13.57
2023-01-29T15:34:22.628Z,11.60
2023-01-29T15:37:28.577Z,20.02
2023-01-29T15:40:30.935Z,17.35
2023-01-29T15:43:36.167Z,15.13
2023-01-29T15:46:38.600Z,12.27
2023-01-29T15:49:40.736Z,14.98
2023-01-29T15:52:42.742Z,11.33
2023-01-29T15:55:45.178Z,14.02
2023-01-29T15:58:47.997Z,14.15
2023-01-29T16:01:50.066Z,17.30
2023-01-29T16:04:52.091Z,12.40
2023-01-29T16:07:54.440Z,14.40
2023-01-29T16:10:57.628Z,12.18
2023-01-29T16:13:59.971Z,15.37
2023-01-29T16:17:21.492Z,16.70
2023-01-29T16:20:30.738Z,14.43
2023-01-29T16:23:35.974Z,17.63
2023-01-29T16:26:45.279Z,15.48
2023-01-29T16:29:47.369Z,20.02
2023-01-29T16:32:49.295Z,17.80
2023-01-29T16:35:52.120Z,17.40
2023-01-29T16:38:54.568Z,16.45
2023-01-29T16:42:02.645Z,20.90
2023-01-29T16:45:05.366Z,23.13
2023-01-29T16:48:25.627Z,22.65
2023-01-29T16:51:31.327Z,37.63
2023-01-29T16:54:33.325Z,31.63
2023-01-29T16:57:35.696Z,24.02
2023-01-29T17:00:37.801Z,26.50
2023-01-29T17:03:39.844Z,22.75
2023-01-29T17:06:43.177Z,19.23
2023-01-29T17:09:45.176Z,19.25
2023-01-29T17:12:54.880Z,20.98
2023-01-29T17:16:03.058Z,20.27
2023-01-29T17:19:11.878Z,19.00
2023-01-29T17:22:16.782Z,19.25
2023-01-29T17:25:19.693Z,18.13
2023-01-29T17:28:22.208Z,21.13
2023-01-29T17:31:24.685Z,17.75
2023-01-29T17:34:27.190Z,20.27
2023-01-29T17:37:29.085Z,24.98
2023-01-29T17:40:38.683Z,24.02
2023-01-29T17:43:40.722Z,32.80
2023-01-29T17:46:43.404Z,29.73
2023-01-29T17:49:45.426Z,25.83
2023-01-29T17:52:47.376Z,24.73
2023-01-29T17:55:49.850Z,26.33
2023-01-29T17:58:52.384Z,27.67
2023-01-29T18:01:54.462Z,25.00
2023-01-29T18:04:56.508Z,25.48
2023-01-29T18:07:58.593Z,27.70
2023-01-29T18:11:01.084Z,23.88
2023-01-29T18:14:07.574Z,23.88
2023-01-29T18:17:22.210Z,21.53
2023-01-29T18:20:27.368Z,22.77
2023-01-29T18:23:31.213Z,21.98
2023-01-29T18:26:33.789Z,20.30
2023-01-29T18:29:35.887Z,20.63
2023-01-29T18:32:37.919Z,21.83
2023-01-29T18:35:40.368Z,20.80
2023-01-29T18:38:43.792Z,22.15
2023-01-29T18:41:46.130Z,21.77
2023-01-29T18:44:48.948Z,25.60
2023-01-29T18:47:50.859Z,32.83
2023-01-29T18:50:53.207Z,25.85
2023-01-29T18:53:55.242Z,27.50
2023-01-29T18:57:13.835Z,24.43
2023-01-29T19:00:16.841Z,28.33
2023-01-29T19:03:18.759Z,27.70
2023-01-29T19:06:20.791Z,23.75
2023-01-29T19:09:23.124Z,23.50
2023-01-29T19:12:25.653Z,27.27
2023-01-29T19:15:28.099Z,25.98
2023-01-29T19:18:30.526Z,24.53
2023-01-29T19:21:35.936Z,27.80
2023-01-29T19:24:39.103Z,32.13
2023-01-29T19:27:41.478Z,26.73
2023-01-29T19:30:43.643Z,27.20
2023-01-29T19:33:45.787Z,26.75
2023-01-29T19:36:47.686Z,30.13
2023-01-29T19:39:49.789Z,29.65
2023-01-29T19:42:55.810Z,30.20
2023-01-29T19:45:58.362Z,27.25
2023-01-29T19:49:00.362Z,31.87
2023-01-29T19:52:02.379Z,32.38
2023-01-29T19:55:05.647Z,32.50
2023-01-29T19:58:08.035Z,34.60
2023-01-29T20:01:14.286Z,29.02
2023-01-29T20:04:16.834Z,34.17
2023-01-29T20:07:21.620Z,37.60
2023-01-29T20:10:24.048Z,33.90
2023-01-29T20:13:26.034Z,31.52
2023-01-29T20:16:28.192Z,31.17
2023-01-29T20:19:30.153Z,28.60
2023-01-29T20:22:32.627Z,28.30
2023-01-29T20:25:35.611Z,25.80
2023-01-29T20:28:37.990Z,30.80
2023-01-29T20:31:40.579Z,28.30
2023-01-29T20:34:42.665Z,31.15
2023-01-29T20:37:44.597Z,29.15
2023-01-29T20:40:46.540Z,30.40
2023-01-29T20:43:50.847Z,31.60
2023-01-29T20:46:53.366Z,32.03
2023-01-29T20:49:55.447Z,27.27
2023-01-29T20:52:57.513Z,30.92
2023-01-29T20:55:59.697Z,25.65
2023-01-29T20:59:02.284Z,33.40
2023-01-29T21:02:04.377Z,36.33
2023-01-29T21:05:06.849Z,37.75
2023-01-29T21:08:08.919Z,33.05
2023-01-29T21:11:11.304Z,28.90
2023-01-29T21:14:14.178Z,27.20
2023-01-29T21:17:16.271Z,29.08
2023-01-29T21:20:18.668Z,24.47
2023-01-29T21:23:21.205Z,27.38
2023-01-29T21:26:23.618Z,27.15
2023-01-29T21:29:25.813Z,29.13
2023-01-29T21:32:28.328Z,29.30
2023-01-29T21:35:30.664Z,32.70
2023-01-29T21:38:32.556Z,35.17
2023-01-29T21:41:53.805Z,30.40
2023-01-29T21:44:55.853Z,29.67
2023-01-29T21:47:58.308Z,25.63
2023-01-29T21:51:00.703Z,27.17
2023-01-29T21:54:03.624Z,29.58
2023-01-29T21:57:06.689Z,37.40
2023-01-29T22:00:09.829Z,30.00
2023-01-29T22:03:12.229Z,32.53
2023-01-29T22:06:14.230Z,43.33
2023-01-29T22:09:16.184Z,35.72
2023-01-29T22:12:18.259Z,33.10
2023-01-29T22:15:22.603Z,37.58
2023-01-29T22:18:26.067Z,31.83
2023-01-29T22:21:28.007Z,29.93
2023-01-29T22:24:29.992Z,30.75
2023-01-29T22:27:33.305Z,30.63
2023-01-29T22:30:35.333Z,32.93
2023-01-29T22:33:37.807Z,31.48
2023-01-29T22:36:40.253Z,33.45
2023-01-29T22:39:42.660Z,24.13
2023-01-29T22:42:45.249Z,27.92
2023-01-29T22:45:47.214Z,28.67
2023-01-29T22:48:49.704Z,25.63
2023-01-29T22:52:10.034Z,24.50
2023-01-29T22:55:12.879Z,26.10
2023-01-29T22:58:15.181Z,27.98
2023-01-29T23:01:20.430Z,25.90
2023-01-29T23:04:22.831Z,31.67
2023-01-29T23:07:25.217Z,28.75
2023-01-29T23:10:27.196Z,29.67
2023-01-29T23:13:29.735Z,25.15
2023-01-29T23:16:32.141Z,27.40
2023-01-29T23:19:34.118Z,26.73
2023-01-29T23:22:36.518Z,25.93
2023-01-29T23:25:57.395Z,27.92
2023-01-29T23:29:00.039Z,26.48
2023-01-29T23:32:02.049Z,25.03
2023-01-29T23:35:04.148Z,27.52
2023-01-29T23:38:06.110Z,29.08
2023-01-29T23:41:08.134Z,29.52
2023-01-29T23:44:10.215Z,28.15
2023-01-29T23:47:12.282Z,27.05
2023-01-29T23:50:14.331Z,26.83
2023-01-29T23:53:16.398Z,29.73
2023-01-29T23:56:18.368Z,27.38
2023-01-29T23:59:20.902Z,26.73
